Hovedside
METAR-TAF:

METAR-TAF

Lufthavner :

Skellefteå lufthavn

Skellefteå, Sverige

breddegrad: 64-38N, lengdegrad: 021-05E, høyde over havet: 49 m

Gjeldene værobservasjon

Denne rapporten ble laget for 18 minutter siden, klokken 13:50 UTC
Vind 11 kt fra Sørvest
Temperatur 4°C
Luftfuktighet 87%
Trykk 1005 hPa
Sikt 10 km eller mer
ingen skyer under 1500 m og ingen bygeskyer

METAR: ESNS 201350Z 23011KT CAVOK 04/02 Q1005

Tid: 15:08 (14:08 UTC)

Varsel

Denne rapporten ble laget for 2 timer og 38 minutter siden, klokken 11:30 UTC
Varsel gyldig fra 20. klokken 12 UTC til 20. klokken 21 UTC
Vind 10 kt fra Sørvest
Sikt 10 km eller mer
ingen skyer under 1500 m og ingen bygeskyer
Blir
fra 20. klokken 16 UTC til 20. klokken 18 UTC
Vind 15 kt fra Vest-sørvest med vindkast opp mot 25 kt

TAF: ESNS 201130Z 2012/2021 23010KT CAVOK BECMG 2016/2018 25015G25KT

Værobservasjoner og værvarsel for over 4000 flyplasser (METAR- og TAF-rapporter).

Tilgjengelige stasjoner er representert av de røde og gule prikkene på kartet.

Hold musepekeren over prikken for å se navnet på stasjonen.

Klikk så for å se værobservasjoner og -varsler.

For å forandre kartet kan du klikke på den grønne knappen med svart kryss for å zoome inn, på den grønne knappen med strek for å zoome ut, eller på de grønne pilene for å se tilstøtende kart.


METAR-TAF: